Time;durP1;ratioP1;P1;durP2;ratioP2;P2;SDS_P1;SDS_P2;PMS_P1;PMS_P2;Temp;Humidity;BMP_temperature;BMP_pressure;BME280_temperature;BME280_humidity;BME280_pressure;Samples;Min_cycle;Max_cycle;Signal;HPM_P1;HPM_P2
2021/10/06 00:01:06;;;;;;;3.15;1.00;;;11.30;92.00;;;;;;2104497;28;20040;-92
2021/10/06 00:02:25;;;;;;;2.63;1.10;;;11.30;92.00;;;;;;2111354;28;20035;-92
2021/10/06 00:03:44;;;;;;;2.00;0.95;;;11.30;92.00;;;;;;2116255;28;20033;-92
2021/10/06 00:05:04;;;;;;;1.65;1.00;;;11.30;92.00;;;;;;2119369;28;20028;-92
2021/10/06 00:06:24;;;;;;;3.67;1.20;;;11.30;92.00;;;;;;2115563;28;20028;-91
2021/10/06 00:07:43;;;;;;;2.33;1.13;;;11.30;92.10;;;;;;2109040;28;20036;-89
2021/10/06 00:09:02;;;;;;;2.53;1.10;;;11.30;92.00;;;;;;2116900;28;20047;-92
2021/10/06 00:10:22;;;;;;;2.38;1.48;;;11.30;92.00;;;;;;2106832;28;20036;-92
2021/10/06 00:11:42;;;;;;;3.05;1.60;;;11.30;92.00;;;;;;2095539;28;20044;-91
2021/10/06 00:13:01;;;;;;;4.43;1.70;;;11.30;92.00;;;;;;2109983;28;20036;-91
2021/10/06 00:14:20;;;;;;;2.58;1.55;;;11.30;92.00;;;;;;2108026;28;20044;-92
2021/10/06 00:15:40;;;;;;;2.80;1.48;;;11.30;92.10;;;;;;2093087;28;20032;-92
2021/10/06 00:17:00;;;;;;;3.88;1.80;;;11.30;92.00;;;;;;2102775;28;20111;-91
2021/10/06 00:18:19;;;;;;;3.13;1.70;;;11.30;92.10;;;;;;2102815;28;20063;-91
2021/10/06 00:19:39;;;;;;;2.60;1.80;;;11.40;92.10;;;;;;2107882;28;20056;-91
2021/10/06 00:20:58;;;;;;;4.18;1.48;;;11.30;92.10;;;;;;2105370;28;20393;-91
2021/10/06 00:22:17;;;;;;;3.70;2.05;;;11.40;92.10;;;;;;2107861;28;20550;-91
2021/10/06 00:23:37;;;;;;;4.03;1.80;;;11.30;92.10;;;;;;2100095;28;20040;-91
2021/10/06 00:24:57;;;;;;;2.65;1.60;;;11.30;92.10;;;;;;2107840;28;20504;-91
2021/10/06 00:26:16;;;;;;;2.88;1.60;;;11.30;92.10;;;;;;2108346;28;20036;-92
2021/10/06 00:27:36;;;;;;;3.67;1.80;;;11.30;92.10;;;;;;2099986;28;20403;-91
2021/10/06 00:28:55;;;;;;;2.88;1.70;;;11.30;92.10;;;;;;2089810;28;20124;-92
2021/10/06 00:30:15;;;;;;;4.00;1.60;;;11.30;92.10;;;;;;2088929;28;21423;-90
2021/10/06 00:31:34;;;;;;;3.08;1.80;;;11.30;92.10;;;;;;2087637;28;20037;-91
2021/10/06 00:32:54;;;;;;;3.75;1.70;;;11.30;92.10;;;;;;2098499;28;20036;-91
2021/10/06 00:34:13;;;;;;;5.68;1.70;;;11.30;92.10;;;;;;2090908;28;20041;-91
2021/10/06 00:35:33;;;;;;;4.80;1.67;;;11.30;92.20;;;;;;2100898;28;20067;-92
2021/10/06 00:36:52;;;;;;;2.67;1.40;;;11.30;92.20;;;;;;2101648;28;20044;-91
2021/10/06 00:38:10;;;;;;;3.28;1.50;;;11.30;92.20;;;;;;2104022;28;20456;-92
2021/10/06 00:39:30;;;;;;;4.05;1.67;;;11.30;92.20;;;;;;2106336;28;20463;-91
2021/10/06 00:40:50;;;;;;;3.80;1.60;;;11.30;92.20;;;;;;2098469;28;20045;-91
2021/10/06 00:42:10;;;;;;;3.08;1.40;;;11.30;92.50;;;;;;2092064;28;20075;-92
2021/10/06 00:43:30;;;;;;;2.85;1.50;;;11.30;92.20;;;;;;2095990;28;20040;-92
2021/10/06 00:44:49;;;;;;;3.80;1.50;;;11.30;92.20;;;;;;2086314;28;20033;-92
2021/10/06 00:46:08;;;;;;;2.58;1.33;;;11.30;92.20;;;;;;2081382;28;20049;-91
2021/10/06 00:47:28;;;;;;;4.10;1.80;;;11.30;92.20;;;;;;2084355;28;20048;-91
2021/10/06 00:48:47;;;;;;;3.05;1.23;;;11.30;92.20;;;;;;2093707;28;20123;-91
2021/10/06 00:50:07;;;;;;;5.88;1.42;;;11.30;92.20;;;;;;2102795;28;20135;-91
2021/10/06 00:51:26;;;;;;;4.22;1.50;;;11.30;92.20;;;;;;2107987;28;20032;-91
2021/10/06 00:52:46;;;;;;;2.75;1.30;;;11.30;92.10;;;;;;2107405;28;20032;-92
2021/10/06 00:54:05;;;;;;;1.93;1.10;;;11.30;92.10;;;;;;2097718;28;20029;-92
2021/10/06 00:55:25;;;;;;;2.97;1.10;;;11.30;92.10;;;;;;2104511;28;20282;-92
2021/10/06 00:56:44;;;;;;;2.65;1.10;;;11.30;92.10;;;;;;2107806;28;20417;-91
2021/10/06 00:58:04;;;;;;;3.80;1.13;;;11.40;92.10;;;;;;2093780;28;20045;-91
2021/10/06 00:59:23;;;;;;;3.25;0.80;;;11.40;92.10;;;;;;2093650;28;20028;-92
2021/10/06 01:00:42;;;;;;;2.33;1.00;;;11.40;92.10;;;;;;2105910;28;20056;-91
2021/10/06 01:02:03;;;;;;;4.85;1.20;;;11.40;92.10;;;;;;2112742;28;20048;-91
2021/10/06 01:03:22;;;;;;;5.20;1.00;;;11.40;92.10;;;;;;2107591;28;20040;-92
2021/10/06 01:04:41;;;;;;;2.63;0.93;;;11.40;92.00;;;;;;2107613;28;20044;-92
2021/10/06 01:06:00;;;;;;;2.80;1.10;;;11.40;92.00;;;;;;2107576;28;20071;-92
2021/10/06 01:07:19;;;;;;;4.82;1.48;;;11.50;92.00;;;;;;2098585;28;20044;-92
2021/10/06 01:08:38;;;;;;;2.50;0.77;;;11.50;92.00;;;;;;2086812;28;20507;-91
2021/10/06 01:09:58;;;;;;;5.05;1.00;;;11.50;92.00;;;;;;2093440;28;20410;-91
2021/10/06 01:11:18;;;;;;;3.25;0.90;;;11.50;91.90;;;;;;2107075;28;20139;-92
2021/10/06 01:12:39;;;;;;;2.95;1.00;;;11.50;91.90;;;;;;2098616;28;20041;-91
2021/10/06 01:13:58;;;;;;;;;;;11.50;91.90;;;;;;2104339;28;20028;-91
2021/10/06 01:15:18;;;;;;;3.00;0.63;;;11.50;91.90;;;;;;2104616;28;20285;-91
2021/10/06 01:16:37;;;;;;;3.10;1.10;;;11.50;91.80;;;;;;2095732;28;20494;-92
2021/10/06 01:17:56;;;;;;;1.30;0.70;;;11.50;91.80;;;;;;2091812;28;20044;-91
2021/10/06 01:19:20;;;;;;;2.05;0.80;;;11.50;91.80;;;;;;2097154;28;20045;-91
2021/10/06 01:20:40;;;;;;;3.67;0.80;;;11.50;91.90;;;;;;2099876;28;20060;-92
2021/10/06 01:21:59;;;;;;;3.38;0.80;;;11.50;91.90;;;;;;2109601;28;20032;-91
2021/10/06 01:23:19;;;;;;;2.92;1.10;;;11.50;91.90;;;;;;2107391;28;20040;-91
2021/10/06 01:24:38;;;;;;;2.78;0.90;;;11.50;91.90;;;;;;2090459;28;20065;-91
2021/10/06 01:25:57;;;;;;;4.13;0.85;;;11.50;91.90;;;;;;2087135;28;20029;-92
2021/10/06 01:27:17;;;;;;;1.80;0.80;;;11.50;91.90;;;;;;2085684;28;20041;-92
2021/10/06 01:28:37;;;;;;;2.80;0.88;;;11.50;91.90;;;;;;2099521;28;20040;-92
2021/10/06 01:29:56;;;;;;;4.28;0.90;;;11.50;91.90;;;;;;2098294;28;20044;-92
2021/10/06 01:31:15;;;;;;;3.70;0.88;;;11.50;92.10;;;;;;2098729;28;20128;-92
2021/10/06 01:32:36;;;;;;;3.40;1.17;;;11.50;91.80;;;;;;2102795;28;20033;-91
2021/10/06 01:33:56;;;;;;;2.90;1.00;;;11.50;91.80;;;;;;2107715;28;20398;-91
2021/10/06 01:35:16;;;;;;;2.60;0.98;;;11.50;91.80;;;;;;2109485;28;20036;-92
2021/10/06 01:36:37;;;;;;;2.72;0.77;;;11.50;91.70;;;;;;2106171;28;20028;-91
2021/10/06 01:37:57;;;;;;;2.90;1.00;;;11.50;91.70;;;;;;2092820;28;20032;-91
2021/10/06 01:39:18;;;;;;;1.77;0.70;;;11.50;91.70;;;;;;2098431;28;20044;-92
2021/10/06 01:40:37;;;;;;;1.88;0.90;;;11.60;91.70;;;;;;2106704;28;20071;-91
2021/10/06 01:41:57;;;;;;;3.08;0.80;;;11.60;91.70;;;;;;2107743;28;20044;-92
2021/10/06 01:43:16;;;;;;;3.10;0.65;;;11.60;91.70;;;;;;2103275;28;20127;-91
2021/10/06 01:44:35;;;;;;;2.85;0.93;;;11.60;91.70;;;;;;2095745;28;20049;-91
2021/10/06 01:45:54;;;;;;;3.42;1.00;;;11.60;91.70;;;;;;2101478;28;20032;-92
2021/10/06 01:47:24;;;;;;;2.30;0.82;;;11.60;91.70;;;;;;2090275;28;20053;-92
2021/10/06 01:48:44;;;;;;;2.83;0.80;;;11.60;91.70;;;;;;2101386;28;20029;-91
2021/10/06 01:50:03;;;;;;;2.85;0.98;;;11.60;91.70;;;;;;2102855;28;20270;-91
2021/10/06 01:51:24;;;;;;;3.25;1.00;;;11.60;91.70;;;;;;2102105;28;20566;-92
2021/10/06 01:52:43;;;;;;;3.75;0.80;;;11.60;91.70;;;;;;2106429;28;20024;-89
2021/10/06 01:54:04;;;;;;;1.73;0.63;;;11.60;91.70;;;;;;2085409;28;20053;-91
2021/10/06 01:55:27;;;;;;;2.03;0.70;;;11.60;91.60;;;;;;2087460;28;20127;-92
2021/10/06 01:56:47;;;;;;;0.95;0.52;;;11.60;91.60;;;;;;2097382;28;20475;-91
2021/10/06 01:58:12;;;;;;;3.92;0.88;;;11.60;91.70;;;;;;2087773;28;20052;-91
2021/10/06 01:59:31;;;;;;;2.60;0.80;;;11.60;91.60;;;;;;2098762;28;20691;-91
2021/10/06 02:00:50;;;;;;;1.75;0.60;;;11.60;91.70;;;;;;2106168;28;20490;-91
2021/10/06 02:02:09;;;;;;;3.25;0.90;;;11.60;91.70;;;;;;2102217;28;20051;-92
2021/10/06 02:03:28;;;;;;;3.95;0.90;;;11.60;91.70;;;;;;2107253;28;20462;-91
2021/10/06 02:04:48;;;;;;;2.10;0.75;;;11.60;91.70;;;;;;2106507;28;20036;-91
2021/10/06 02:06:07;;;;;;;2.47;0.70;;;11.50;91.70;;;;;;2105313;28;20052;-91
2021/10/06 02:07:26;;;;;;;2.22;0.80;;;11.50;91.70;;;;;;2097682;28;20040;-91
2021/10/06 02:08:45;;;;;;;2.63;0.80;;;11.50;91.70;;;;;;2098683;28;20040;-92
2021/10/06 02:10:06;;;;;;;2.55;0.68;;;11.50;91.70;;;;;;2100256;28;20028;-91
2021/10/06 02:11:25;;;;;;;4.03;0.80;;;11.50;91.70;;;;;;2093757;28;20044;-91
2021/10/06 02:12:44;;;;;;;3.50;0.82;;;11.50;91.70;;;;;;2098672;28;20036;-92
2021/10/06 02:14:03;;;;;;;4.25;0.95;;;11.50;91.70;;;;;;2099220;28;20045;-91
2021/10/06 02:15:23;;;;;;;3.47;0.90;;;11.50;91.70;;;;;;2095220;28;20131;-91
2021/10/06 02:16:42;;;;;;;2.80;0.90;;;11.50;91.70;;;;;;2095936;28;20041;-91
2021/10/06 02:18:01;;;;;;;2.58;0.75;;;11.50;91.70;;;;;;2089749;28;20029;-91
2021/10/06 02:19:21;;;;;;;5.03;1.25;;;11.50;91.80;;;;;;2088652;28;20021;-91
2021/10/06 02:20:40;;;;;;;4.20;0.90;;;11.50;91.80;;;;;;2092846;28;20029;-91
2021/10/06 02:22:00;;;;;;;2.75;0.77;;;11.50;91.80;;;;;;2102989;28;20490;-91
2021/10/06 02:23:19;;;;;;;4.70;0.90;;;11.50;91.80;;;;;;2093973;28;20060;-91
2021/10/06 02:24:38;;;;;;;2.90;1.00;;;11.50;91.80;;;;;;2103640;28;20024;-91
2021/10/06 02:25:57;;;;;;;2.97;0.90;;;11.50;91.80;;;;;;2090206;28;20033;-91
2021/10/06 02:27:17;;;;;;;3.15;0.90;;;11.50;91.80;;;;;;2099894;28;20040;-92
2021/10/06 02:28:36;;;;;;;2.53;0.98;;;11.50;91.80;;;;;;2087918;28;20045;-91
2021/10/06 02:29:56;;;;;;;5.80;1.00;;;11.50;91.80;;;;;;2103165;28;20043;-91
2021/10/06 02:31:15;;;;;;;3.10;0.90;;;11.50;91.80;;;;;;2108366;28;20063;-91
2021/10/06 02:32:34;;;;;;;3.80;0.90;;;11.40;91.80;;;;;;2108318;28;20044;-91
2021/10/06 02:33:54;;;;;;;5.55;1.00;;;11.40;91.80;;;;;;2108579;28;20098;-91
2021/10/06 02:35:13;;;;;;;5.22;0.90;;;11.40;91.80;;;;;;2106051;28;20048;-91
2021/10/06 02:36:32;;;;;;;4.85;0.90;;;11.40;91.90;;;;;;2099992;28;20487;-92
2021/10/06 02:37:51;;;;;;;3.47;0.90;;;11.40;91.90;;;;;;2107008;28;20087;-91
2021/10/06 02:39:11;;;;;;;3.92;1.00;;;11.40;91.90;;;;;;2103244;28;20044;-91
2021/10/06 02:40:30;;;;;;;4.32;0.90;;;11.40;91.80;;;;;;2086707;28;20033;-91
2021/10/06 02:41:49;;;;;;;3.00;0.88;;;11.40;91.80;;;;;;2086707;28;20380;-91
2021/10/06 02:43:08;;;;;;;2.42;0.88;;;11.40;91.80;;;;;;2096148;28;20433;-91
2021/10/06 02:44:27;;;;;;;3.70;0.80;;;11.40;91.90;;;;;;2105606;28;20036;-91
2021/10/06 02:45:46;;;;;;;2.85;0.80;;;11.40;91.90;;;;;;2092307;28;20068;-91
2021/10/06 02:47:06;;;;;;;4.35;0.95;;;11.40;91.90;;;;;;2101272;28;20048;-91
2021/10/06 02:48:25;;;;;;;2.80;0.73;;;11.40;91.90;;;;;;2104455;28;20036;-91
2021/10/06 02:49:44;;;;;;;1.90;0.60;;;11.40;91.90;;;;;;2106249;28;20398;-92
2021/10/06 02:51:03;;;;;;;3.33;0.90;;;11.40;91.90;;;;;;2112847;28;20036;-91
2021/10/06 02:52:22;;;;;;;4.70;0.90;;;11.30;91.90;;;;;;2103673;28;20119;-91
2021/10/06 02:53:42;;;;;;;3.53;0.98;;;11.30;91.90;;;;;;2102457;28;20044;-91
2021/10/06 02:55:01;;;;;;;2.55;0.77;;;11.30;92.00;;;;;;2113726;28;20056;-91
2021/10/06 02:56:21;;;;;;;3.20;0.90;;;11.30;92.00;;;;;;2113583;28;20091;-91
2021/10/06 02:57:40;;;;;;;3.00;0.85;;;11.30;92.00;;;;;;2113414;28;20040;-91
2021/10/06 02:59:00;;;;;;;4.85;1.00;;;11.30;92.00;;;;;;2104459;28;20040;-92
2021/10/06 03:00:19;;;;;;;3.38;0.90;;;11.30;92.10;;;;;;2106442;28;20048;-90
2021/10/06 03:01:38;;;;;;;2.97;1.10;;;11.30;92.10;;;;;;2106412;28;20092;-91
2021/10/06 03:02:57;;;;;;;2.30;0.60;;;11.30;92.10;;;;;;2104879;28;20040;-90
2021/10/06 03:04:16;;;;;;;2.85;0.80;;;11.30;92.10;;;;;;2094353;28;20048;-92
2021/10/06 03:05:35;;;;;;;3.13;0.85;;;11.30;92.10;;;;;;2104524;28;20040;-91
2021/10/06 03:06:54;;;;;;;3.33;0.80;;;11.30;92.10;;;;;;2092914;28;20433;-86
2021/10/06 03:08:14;;;;;;;2.08;0.80;;;11.30;92.10;;;;;;2097005;28;20028;-91
2021/10/06 03:09:33;;;;;;;4.10;1.10;;;11.30;92.10;;;;;;2094894;28;20434;-92
2021/10/06 03:10:52;;;;;;;2.70;1.00;;;11.30;92.10;;;;;;2103242;28;20036;-91
2021/10/06 03:12:12;;;;;;;3.08;1.20;;;11.30;92.10;;;;;;2092614;28;20045;-91
2021/10/06 03:13:31;;;;;;;3.50;1.23;;;11.30;92.10;;;;;;2103579;28;20048;-92
2021/10/06 03:14:51;;;;;;;3.65;1.13;;;11.30;92.10;;;;;;2105808;28;20043;-92
2021/10/06 03:16:10;;;;;;;3.47;1.02;;;11.30;92.10;;;;;;2097690;28;20040;-91
2021/10/06 03:17:29;;;;;;;4.13;1.35;;;11.30;92.10;;;;;;2094038;28;20107;-91
2021/10/06 03:18:48;;;;;;;3.63;1.08;;;11.30;92.10;;;;;;2101282;28;20482;-91
2021/10/06 03:20:09;;;;;;;3.80;1.30;;;11.30;92.10;;;;;;2093459;28;20079;-91
2021/10/06 03:21:28;;;;;;;4.05;1.27;;;11.30;92.10;;;;;;2092742;28;20032;-91
2021/10/06 03:22:47;;;;;;;3.30;1.20;;;11.20;92.10;;;;;;2093957;28;20033;-90
2021/10/06 03:24:07;;;;;;;4.32;1.23;;;11.20;92.10;;;;;;2101340;28;20043;-90
2021/10/06 03:25:26;;;;;;;4.70;1.23;;;11.20;92.10;;;;;;2106949;28;20036;-90
2021/10/06 03:26:45;;;;;;;3.33;1.17;;;11.20;92.10;;;;;;2106092;28;20071;-91
2021/10/06 03:28:04;;;;;;;3.25;1.45;;;11.20;92.20;;;;;;2097458;28;20040;-90
2021/10/06 03:29:23;;;;;;;3.83;1.23;;;11.20;92.20;;;;;;2095368;28;20044;-90
2021/10/06 03:30:43;;;;;;;4.10;1.17;;;11.10;92.20;;;;;;2097754;28;20123;-90
2021/10/06 03:32:03;;;;;;;3.33;1.30;;;11.10;92.30;;;;;;2109847;28;20109;-90
2021/10/06 03:33:22;;;;;;;2.63;1.10;;;11.10;92.30;;;;;;2103350;28;20047;-90
2021/10/06 03:34:41;;;;;;;3.60;1.33;;;11.10;92.40;;;;;;2106171;28;20456;-90
2021/10/06 03:36:00;;;;;;;2.95;1.30;;;11.10;92.40;;;;;;2106642;28;20075;-90
2021/10/06 03:37:19;;;;;;;5.15;1.55;;;11.10;92.40;;;;;;2098476;28;20040;-90
2021/10/06 03:38:38;;;;;;;5.32;1.48;;;11.10;92.40;;;;;;2102395;28;20103;-91
2021/10/06 03:39:57;;;;;;;2.88;1.40;;;11.10;92.50;;;;;;2104701;28;20040;-90
2021/10/06 03:41:16;;;;;;;4.35;1.15;;;11.00;92.40;;;;;;2099810;28;20041;-91
2021/10/06 03:42:35;;;;;;;4.53;1.40;;;11.00;92.60;;;;;;2097553;28;20045;-91
2021/10/06 03:43:55;;;;;;;2.88;1.33;;;11.00;92.50;;;;;;2096861;28;20052;-90
2021/10/06 03:45:14;;;;;;;4.15;1.27;;;11.10;92.60;;;;;;2098975;28;20040;-90
2021/10/06 03:46:33;;;;;;;3.08;1.20;;;11.10;92.60;;;;;;2106480;28;20040;-90
2021/10/06 03:47:52;;;;;;;4.03;1.38;;;11.00;92.60;;;;;;2105825;28;20040;-90
2021/10/06 03:49:12;;;;;;;4.82;1.83;;;11.00;92.60;;;;;;2106442;28;20048;-90
2021/10/06 03:50:31;;;;;;;4.10;1.30;;;11.00;92.60;;;;;;2106413;28;20064;-91
2021/10/06 03:51:50;;;;;;;1.98;1.20;;;11.00;92.60;;;;;;2097816;28;20033;-91
2021/10/06 03:53:11;;;;;;;3.58;1.40;;;11.00;92.60;;;;;;2093741;28;20068;-90
2021/10/06 03:54:31;;;;;;;3.65;1.40;;;11.00;92.60;;;;;;2098220;28;20044;-91
2021/10/06 03:55:50;;;;;;;4.53;1.40;;;11.00;92.60;;;;;;2103990;28;20115;-90
2021/10/06 03:57:08;;;;;;;2.67;1.15;;;11.00;92.70;;;;;;2097564;28;20056;-90
2021/10/06 03:58:28;;;;;;;3.25;1.20;;;11.00;92.70;;;;;;2098304;28;20049;-90
2021/10/06 03:59:47;;;;;;;3.28;1.27;;;11.00;92.70;;;;;;2108069;28;20501;-90
2021/10/06 04:01:06;;;;;;;3.15;1.17;;;11.00;92.70;;;;;;2107973;28;20040;-89
2021/10/06 04:02:25;;;;;;;4.63;1.10;;;11.00;92.70;;;;;;2093921;28;20029;-91
2021/10/06 04:03:45;;;;;;;3.72;1.10;;;11.00;92.70;;;;;;2099685;28;20032;-91
2021/10/06 04:05:06;;;;;;;4.68;0.93;;;11.00;92.70;;;;;;2107765;28;20044;-91
2021/10/06 04:06:25;;;;;;;2.38;0.82;;;10.90;92.70;;;;;;2108066;28;20024;-91
2021/10/06 04:07:44;;;;;;;3.20;1.00;;;10.90;92.70;;;;;;2108237;28;20071;-91
2021/10/06 04:09:03;;;;;;;3.28;1.10;;;10.90;92.80;;;;;;2108241;28;20052;-91
2021/10/06 04:10:24;;;;;;;3.63;1.20;;;10.90;92.80;;;;;;2098698;28;20052;-90
2021/10/06 04:11:43;;;;;;;4.47;1.42;;;10.90;92.80;;;;;;2102636;28;20071;-90
2021/10/06 04:13:02;;;;;;;3.42;1.23;;;10.90;92.80;;;;;;2106788;28;20044;-90
2021/10/06 04:14:22;;;;;;;2.83;1.10;;;10.90;92.80;;;;;;2100121;28;20044;-90
2021/10/06 04:15:41;;;;;;;3.50;1.00;;;10.90;92.80;;;;;;2090500;28;20037;-90
2021/10/06 04:17:01;;;;;;;1.92;0.90;;;10.90;92.80;;;;;;2107455;28;20035;-90
2021/10/06 04:18:20;;;;;;;3.25;1.00;;;10.90;92.90;;;;;;2108104;28;20048;-90
2021/10/06 04:19:39;;;;;;;2.22;0.90;;;10.90;92.90;;;;;;2092650;28;20076;-90
2021/10/06 04:20:59;;;;;;;4.68;1.20;;;10.90;92.90;;;;;;2108711;28;20032;-90
2021/10/06 04:22:18;;;;;;;2.63;0.98;;;10.90;92.90;;;;;;2117447;28;20032;-90
2021/10/06 04:23:37;;;;;;;2.90;0.80;;;10.90;92.90;;;;;;2103788;28;20386;-89
2021/10/06 04:24:56;;;;;;;2.85;0.80;;;10.90;92.90;;;;;;2105480;28;20055;-90
2021/10/06 04:26:15;;;;;;;3.22;0.80;;;10.90;92.90;;;;;;2107758;28;20475;-89
2021/10/06 04:27:35;;;;;;;1.40;0.80;;;10.90;92.90;;;;;;2105983;28;20115;-91
2021/10/06 04:28:54;;;;;;;2.05;0.85;;;10.80;92.90;;;;;;2107689;28;20040;-90
2021/10/06 04:30:14;;;;;;;2.42;0.60;;;10.80;93.20;;;;;;2107644;28;20035;-85
2021/10/06 04:31:33;;;;;;;1.17;0.60;;;10.80;92.90;;;;;;2092024;28;20487;-90
2021/10/06 04:32:52;;;;;;;1.20;0.50;;;10.80;92.90;;;;;;2091869;28;20457;-89
2021/10/06 04:34:11;;;;;;;2.33;0.60;;;10.70;92.90;;;;;;2101207;28;20076;-90
2021/10/06 04:35:31;;;;;;;1.65;0.80;;;10.70;93.00;;;;;;2106647;28;20406;-89
2021/10/06 04:36:50;;;;;;;1.30;0.63;;;10.70;93.00;;;;;;2107867;28;20498;-90
2021/10/06 04:38:10;;;;;;;2.25;0.57;;;10.70;93.00;;;;;;2108007;28;20068;-90
2021/10/06 04:39:29;;;;;;;1.35;0.50;;;10.70;93.00;;;;;;2107203;28;20044;-91
2021/10/06 04:40:48;;;;;;;1.75;0.65;;;10.60;93.00;;;;;;2094294;28;20044;-90
2021/10/06 04:42:07;;;;;;;1.17;0.60;;;10.70;93.10;;;;;;2099444;28;20032;-91
2021/10/06 04:43:26;;;;;;;1.98;0.60;;;10.60;93.10;;;;;;2102099;28;20045;-90
2021/10/06 04:44:46;;;;;;;2.05;0.70;;;10.60;93.10;;;;;;2097072;28;20033;-90
2021/10/06 04:46:05;;;;;;;1.75;0.77;;;10.60;93.10;;;;;;2104333;28;20048;-90
2021/10/06 04:47:24;;;;;;;1.58;0.77;;;10.60;93.10;;;;;;2107311;28;20044;-89
2021/10/06 04:48:43;;;;;;;3.08;1.02;;;10.60;93.20;;;;;;2098217;28;20518;-88
2021/10/06 04:50:04;;;;;;;4.35;1.05;;;10.60;93.10;;;;;;2104408;28;20040;-89
2021/10/06 04:51:24;;;;;;;4.03;1.25;;;10.60;93.10;;;;;;2105380;28;20506;-89
2021/10/06 04:52:43;;;;;;;1.48;0.80;;;10.60;93.10;;;;;;2107588;28;20478;-88
2021/10/06 04:54:02;;;;;;;1.75;0.85;;;10.60;93.20;;;;;;2106497;28;20044;-90
2021/10/06 04:55:22;;;;;;;2.72;1.00;;;10.70;93.20;;;;;;2109615;28;20040;-90
2021/10/06 04:56:42;;;;;;;1.83;0.80;;;10.60;93.20;;;;;;2107956;28;20436;-86
2021/10/06 04:58:01;;;;;;;4.78;1.08;;;10.70;93.50;;;;;;2107633;28;20039;-92
2021/10/06 04:59:20;;;;;;;2.22;0.98;;;10.60;93.50;;;;;;2104638;28;20032;-92
2021/10/06 05:00:39;;;;;;;2.55;0.80;;;10.70;93.20;;;;;;2107423;28;20059;-90
2021/10/06 05:01:59;;;;;;;2.58;0.95;;;10.70;93.30;;;;;;2103503;28;20402;-90
2021/10/06 05:03:18;;;;;;;3.55;1.20;;;10.70;93.30;;;;;;2097740;28;20518;-89
2021/10/06 05:04:38;;;;;;;4.65;1.50;;;10.70;93.20;;;;;;2088481;28;20041;-89
2021/10/06 05:05:57;;;;;;;1.95;0.90;;;10.70;93.30;;;;;;2098038;28;20037;-90
2021/10/06 05:07:16;;;;;;;4.25;1.30;;;10.70;93.30;;;;;;2103040;28;20029;-90
2021/10/06 05:08:37;;;;;;;2.63;1.45;;;10.70;93.30;;;;;;2086801;28;20065;-89
2021/10/06 05:09:57;;;;;;;3.95;1.50;;;10.70;93.30;;;;;;2093769;28;20041;-90
2021/10/06 05:11:16;;;;;;;3.97;1.30;;;10.70;93.30;;;;;;2097636;28;20064;-89
2021/10/06 05:12:35;;;;;;;2.55;1.52;;;10.60;93.20;;;;;;2088651;28;20033;-87
2021/10/06 05:13:55;;;;;;;2.90;1.50;;;10.70;93.50;;;;;;2093334;28;20044;-88
2021/10/06 05:15:14;;;;;;;4.28;1.58;;;10.70;93.30;;;;;;2095751;28;20542;-88
2021/10/06 05:16:34;;;;;;;3.88;1.50;;;10.70;93.30;;;;;;2103546;28;20032;-89
2021/10/06 05:17:54;;;;;;;3.97;1.52;;;10.60;93.30;;;;;;2102754;28;20373;-89
2021/10/06 05:19:13;;;;;;;3.88;1.65;;;10.60;93.30;;;;;;2109539;28;20091;-89
2021/10/06 05:20:33;;;;;;;4.63;1.50;;;10.70;93.30;;;;;;2106984;28;20036;-89
2021/10/06 05:21:52;;;;;;;4.05;1.42;;;10.70;93.30;;;;;;2095420;28;20044;-89
2021/10/06 05:23:11;;;;;;;4.72;1.90;;;10.60;93.30;;;;;;2099814;28;20032;-89
2021/10/06 05:24:31;;;;;;;2.67;1.55;;;10.60;93.30;;;;;;2108548;28;20035;-89
2021/10/06 05:25:50;;;;;;;3.10;1.25;;;10.60;93.30;;;;;;2116367;28;20405;-89
2021/10/06 05:27:09;;;;;;;3.50;1.40;;;10.60;93.30;;;;;;2110878;28;20119;-87
2021/10/06 05:28:28;;;;;;;4.05;1.45;;;10.70;93.30;;;;;;2095443;28;20040;-88
2021/10/06 05:29:47;;;;;;;3.60;1.33;;;10.60;93.30;;;;;;2104663;28;20486;-88
2021/10/06 05:31:07;;;;;;;5.05;1.92;;;10.60;93.30;;;;;;2107840;28;20032;-89
2021/10/06 05:32:27;;;;;;;5.68;1.77;;;10.60;93.40;;;;;;2112248;28;20067;-89
2021/10/06 05:33:45;;;;;;;4.28;1.70;;;10.60;93.40;;;;;;2106937;28;20521;-83
2021/10/06 05:35:06;;;;;;;5.43;1.80;;;10.60;93.40;;;;;;2108404;28;20044;-84
2021/10/06 05:36:25;;;;;;;3.30;1.58;;;10.60;93.40;;;;;;2109287;28;20036;-89
2021/10/06 05:37:46;;;;;;;4.78;1.50;;;10.60;93.40;;;;;;2083546;28;20038;-89
2021/10/06 05:39:05;;;;;;;3.78;1.30;;;10.60;93.40;;;;;;2092910;28;20032;-88
2021/10/06 05:40:25;;;;;;;4.47;1.30;;;10.60;93.40;;;;;;2092440;28;20048;-88
2021/10/06 05:41:44;;;;;;;3.53;1.42;;;10.60;93.40;;;;;;2111314;28;20032;-88
2021/10/06 05:43:03;;;;;;;2.05;1.17;;;10.60;93.40;;;;;;2122567;28;20062;-88
2021/10/06 05:44:23;;;;;;;4.15;1.48;;;10.60;93.40;;;;;;2103937;28;20033;-88
2021/10/06 05:45:42;;;;;;;3.47;1.35;;;10.60;93.50;;;;;;2096261;28;20055;-87
2021/10/06 05:47:01;;;;;;;3.55;1.30;;;10.60;93.50;;;;;;2088557;28;20021;-87
2021/10/06 05:48:21;;;;;;;3.20;1.20;;;10.70;93.50;;;;;;2104043;28;20518;-88
2021/10/06 05:49:40;;;;;;;2.70;1.20;;;10.60;93.50;;;;;;2093716;28;20032;-87
2021/10/06 05:50:59;;;;;;;3.63;1.17;;;10.70;93.50;;;;;;2083876;28;20045;-89
2021/10/06 05:52:18;;;;;;;2.72;1.10;;;10.60;93.50;;;;;;2107855;27;20023;-88
2021/10/06 05:53:37;;;;;;;4.68;1.35;;;10.70;93.50;;;;;;2106449;28;20040;-88
2021/10/06 05:54:56;;;;;;;5.15;1.60;;;10.60;93.50;;;;;;2104638;28;20483;-88
2021/10/06 05:56:15;;;;;;;6.38;1.38;;;10.60;93.50;;;;;;2107351;28;20028;-88
2021/10/06 05:57:35;;;;;;;4.82;1.40;;;10.60;93.50;;;;;;2113062;27;20043;-89
2021/10/06 05:58:54;;;;;;;5.40;1.77;;;10.60;93.50;;;;;;2115380;28;20035;-88
2021/10/06 06:00:13;;;;;;;4.85;1.70;;;10.60;93.50;;;;;;2115506;28;20099;-88
2021/10/06 06:01:32;;;;;;;6.40;1.63;;;10.60;93.50;;;;;;2115949;28;20069;-88
2021/10/06 06:02:52;;;;;;;5.00;1.35;;;10.60;93.60;;;;;;2112145;28;20039;-88
2021/10/06 06:04:11;;;;;;;5.53;1.50;;;10.60;93.60;;;;;;2111824;27;20046;-88
2021/10/06 06:05:30;;;;;;;4.60;1.70;;;10.60;93.60;;;;;;2115551;28;20047;-88
2021/10/06 06:06:49;;;;;;;3.30;1.20;;;10.60;93.60;;;;;;2098422;28;20041;-87
2021/10/06 06:08:09;;;;;;;5.10;1.60;;;10.60;93.60;;;;;;2089058;28;20048;-88
2021/10/06 06:09:28;;;;;;;5.60;1.52;;;10.60;93.60;;;;;;2100770;28;20398;-88
2021/10/06 06:10:47;;;;;;;3.50;1.23;;;10.60;93.60;;;;;;2107503;28;20044;-88
2021/10/06 06:12:09;;;;;;;4.28;1.50;;;10.60;93.60;;;;;;2109688;28;20036;-89
2021/10/06 06:13:28;;;;;;;5.80;1.75;;;10.60;93.60;;;;;;2112655;28;20114;-88
2021/10/06 06:14:47;;;;;;;3.33;1.70;;;10.50;93.60;;;;;;2114986;28;20051;-89
2021/10/06 06:16:08;;;;;;;4.05;1.60;;;10.60;93.60;;;;;;2098831;28;20963;-89
2021/10/06 06:17:27;;;;;;;5.93;1.80;;;10.60;93.70;;;;;;2099779;28;20036;-88
2021/10/06 06:18:46;;;;;;;5.90;2.25;;;10.50;93.70;;;;;;2102839;28;20036;-88
2021/10/06 06:20:11;;;;;;;5.18;1.60;;;10.60;93.70;;;;;;2101531;28;20056;-89
2021/10/06 06:21:30;;;;;;;5.13;1.63;;;10.60;93.70;;;;;;2100522;28;20040;-86
2021/10/06 06:22:54;;;;;;;4.60;1.63;;;10.60;93.70;;;;;;2098875;28;20428;-89
2021/10/06 06:24:13;;;;;;;4.60;1.80;;;10.50;93.70;;;;;;2106427;28;20040;-89
2021/10/06 06:25:32;;;;;;;5.03;1.58;;;10.50;94.00;;;;;;2094892;28;20052;-89
2021/10/06 06:26:51;;;;;;;3.33;1.70;;;10.50;93.70;;;;;;2095157;28;20036;-89
2021/10/06 06:28:11;;;;;;;7.43;2.00;;;10.50;93.70;;;;;;2103480;28;20036;-89
2021/10/06 06:29:30;;;;;;;5.10;1.92;;;10.50;94.00;;;;;;2101526;28;20041;-89
2021/10/06 06:30:50;;;;;;;5.60;2.08;;;10.50;93.70;;;;;;2090157;28;20435;-89
2021/10/06 06:32:09;;;;;;;5.78;2.17;;;10.50;93.70;;;;;;2083668;28;20041;-89
2021/10/06 06:33:28;;;;;;;4.85;2.08;;;10.50;93.70;;;;;;2086073;28;20032;-89
2021/10/06 06:34:48;;;;;;;4.38;1.80;;;10.50;93.80;;;;;;2091788;28;20070;-89
2021/10/06 06:36:09;;;;;;;5.30;1.85;;;10.50;93.80;;;;;;2094968;28;20041;-88
2021/10/06 06:37:28;;;;;;;4.80;1.70;;;10.50;93.80;;;;;;2099731;28;20036;-89
2021/10/06 06:38:47;;;;;;;4.50;1.55;;;10.50;93.80;;;;;;2106383;28;20036;-89
2021/10/06 06:40:07;;;;;;;6.00;1.70;;;10.60;93.80;;;;;;2107066;28;20122;-89
2021/10/06 06:41:27;;;;;;;5.05;1.75;;;10.50;93.80;;;;;;2103328;28;20037;-89
2021/10/06 06:42:47;;;;;;;4.18;2.00;;;10.50;93.80;;;;;;2106555;28;20044;-88
2021/10/06 06:44:06;;;;;;;5.43;1.63;;;10.60;93.80;;;;;;2106151;28;20119;-88
2021/10/06 06:45:26;;;;;;;4.53;1.77;;;10.60;93.80;;;;;;2107285;28;20242;-88
2021/10/06 06:46:45;;;;;;;3.55;1.63;;;10.50;93.80;;;;;;2112160;28;20119;-88
2021/10/06 06:48:05;;;;;;;4.68;1.80;;;10.50;93.80;;;;;;2099030;28;20060;-89
2021/10/06 06:49:24;;;;;;;4.22;1.90;;;10.50;93.80;;;;;;2104755;28;20437;-89
2021/10/06 06:50:45;;;;;;;4.38;1.90;;;10.50;93.80;;;;;;2106569;28;20044;-89
2021/10/06 06:52:05;;;;;;;5.00;2.10;;;10.50;93.80;;;;;;2102387;28;20068;-88
2021/10/06 06:53:26;;;;;;;;;;;10.50;93.90;;;;;;2098518;28;20056;-88
2021/10/06 06:54:46;;;;;;;5.82;1.67;;;10.50;93.90;;;;;;2103678;28;20002;-89